sensor_id;sensor_type;location;lat;lon;timestamp;pressure;altitude;pressure_sealevel;temperature;humidity
19526;BME280;9907;42.676;26.348;2023-05-09T00:00:11;99308.94;;;12.18;100.00
19526;BME280;9907;42.676;26.348;2023-05-09T00:02:38;99311.75;;;12.26;100.00
19526;BME280;9907;42.676;26.348;2023-05-09T00:05:05;99304.97;;;12.41;100.00
19526;BME280;9907;42.676;26.348;2023-05-09T00:07:32;99303.66;;;12.45;100.00
19526;BME280;9907;42.676;26.348;2023-05-09T00:09:59;99302.44;;;12.40;100.00
19526;BME280;9907;42.676;26.348;2023-05-09T00:12:25;99306.63;;;12.42;100.00
19526;BME280;9907;42.676;26.348;2023-05-09T00:14:51;99307.91;;;12.38;100.00
19526;BME280;9907;42.676;26.348;2023-05-09T00:17:24;99314.69;;;12.33;100.00
19526;BME280;9907;42.676;26.348;2023-05-09T00:19:51;99318.53;;;12.30;100.00
19526;BME280;9907;42.676;26.348;2023-05-09T00:22:17;99313.69;;;12.05;100.00
19526;BME280;9907;42.676;26.348;2023-05-09T00:24:48;99312.88;;;12.14;100.00
19526;BME280;9907;42.676;26.348;2023-05-09T00:27:15;99317.66;;;12.01;100.00
19526;BME280;9907;42.676;26.348;2023-05-09T00:29:41;99317.06;;;11.97;100.00
19526;BME280;9907;42.676;26.348;2023-05-09T00:32:06;99318.47;;;12.01;100.00
19526;BME280;9907;42.676;26.348;2023-05-09T00:34:32;99315.41;;;11.96;100.00
19526;BME280;9907;42.676;26.348;2023-05-09T00:36:57;99330.16;;;11.81;100.00
19526;BME280;9907;42.676;26.348;2023-05-09T00:39:23;99321.72;;;11.86;100.00
19526;BME280;9907;42.676;26.348;2023-05-09T00:41:48;99325.22;;;11.77;100.00
19526;BME280;9907;42.676;26.348;2023-05-09T00:44:14;99329.59;;;11.78;100.00
19526;BME280;9907;42.676;26.348;2023-05-09T00:46:40;99323.53;;;11.76;100.00
19526;BME280;9907;42.676;26.348;2023-05-09T00:49:05;99328.84;;;11.66;100.00
19526;BME280;9907;42.676;26.348;2023-05-09T00:51:32;99325.19;;;11.67;100.00
19526;BME280;9907;42.676;26.348;2023-05-09T00:53:58;99325.59;;;11.62;100.00
19526;BME280;9907;42.676;26.348;2023-05-09T00:56:24;99324.84;;;11.60;100.00
19526;BME280;9907;42.676;26.348;2023-05-09T00:58:50;99324.84;;;11.60;100.00
19526;BME280;9907;42.676;26.348;2023-05-09T01:01:16;99324.59;;;11.63;100.00
19526;BME280;9907;42.676;26.348;2023-05-09T01:03:41;99326.44;;;11.63;100.00
19526;BME280;9907;42.676;26.348;2023-05-09T01:06:30;99324.44;;;11.55;100.00
19526;BME280;9907;42.676;26.348;2023-05-09T01:09:09;99321.03;;;11.53;100.00
19526;BME280;9907;42.676;26.348;2023-05-09T01:14:53;99321.19;;;11.52;100.00
19526;BME280;9907;42.676;26.348;2023-05-09T01:17:52;99316.13;;;11.58;100.00
19526;BME280;9907;42.676;26.348;2023-05-09T01:26:02;99324.16;;;11.58;100.00
19526;BME280;9907;42.676;26.348;2023-05-09T01:28:33;99319.22;;;11.54;100.00
19526;BME280;9907;42.676;26.348;2023-05-09T01:31:00;99322.28;;;11.49;100.00
19526;BME280;9907;42.676;26.348;2023-05-09T01:33:29;99327.41;;;11.52;100.00
19526;BME280;9907;42.676;26.348;2023-05-09T01:36:07;99328.25;;;11.53;99.50
19526;BME280;9907;42.676;26.348;2023-05-09T01:38:36;99328.78;;;11.47;99.32
19526;BME280;9907;42.676;26.348;2023-05-09T01:41:03;99322.03;;;11.52;98.47
19526;BME280;9907;42.676;26.348;2023-05-09T01:43:32;99322.63;;;11.56;98.14
19526;BME280;9907;42.676;26.348;2023-05-09T01:45:58;99321.47;;;11.58;98.07
19526;BME280;9907;42.676;26.348;2023-05-09T01:48:25;99320.81;;;11.66;98.98
19526;BME280;9907;42.676;26.348;2023-05-09T01:50:53;99320.41;;;11.70;99.42
19526;BME280;9907;42.676;26.348;2023-05-09T01:53:21;99324.94;;;11.80;99.51
19526;BME280;9907;42.676;26.348;2023-05-09T01:55:49;99330.56;;;11.77;100.00
19526;BME280;9907;42.676;26.348;2023-05-09T01:58:17;99325.50;;;11.74;100.00
19526;BME280;9907;42.676;26.348;2023-05-09T02:00:44;99326.19;;;11.76;100.00
19526;BME280;9907;42.676;26.348;2023-05-09T02:03:11;99330.00;;;11.73;100.00
19526;BME280;9907;42.676;26.348;2023-05-09T02:05:37;99320.44;;;11.80;100.00
19526;BME280;9907;42.676;26.348;2023-05-09T02:08:04;99322.13;;;11.81;100.00
19526;BME280;9907;42.676;26.348;2023-05-09T02:10:29;99330.44;;;11.78;100.00
19526;BME280;9907;42.676;26.348;2023-05-09T02:12:55;99332.56;;;11.75;100.00
19526;BME280;9907;42.676;26.348;2023-05-09T02:15:23;99326.16;;;11.66;100.00
19526;BME280;9907;42.676;26.348;2023-05-09T02:17:50;99328.88;;;11.76;100.00
19526;BME280;9907;42.676;26.348;2023-05-09T02:20:15;99331.53;;;11.76;100.00
19526;BME280;9907;42.676;26.348;2023-05-09T02:22:41;99331.09;;;11.70;100.00
19526;BME280;9907;42.676;26.348;2023-05-09T02:25:09;99327.91;;;11.77;100.00
19526;BME280;9907;42.676;26.348;2023-05-09T02:27:37;99333.06;;;11.68;100.00
19526;BME280;9907;42.676;26.348;2023-05-09T02:30:07;99346.00;;;11.63;100.00
19526;BME280;9907;42.676;26.348;2023-05-09T02:32:37;99343.06;;;11.66;100.00
19526;BME280;9907;42.676;26.348;2023-05-09T02:35:04;99350.47;;;11.53;100.00
19526;BME280;9907;42.676;26.348;2023-05-09T02:37:30;99349.38;;;11.56;100.00
19526;BME280;9907;42.676;26.348;2023-05-09T02:39:57;99350.22;;;11.56;100.00
19526;BME280;9907;42.676;26.348;2023-05-09T02:42:24;99351.03;;;11.57;100.00
19526;BME280;9907;42.676;26.348;2023-05-09T02:44:53;99350.91;;;11.58;100.00
19526;BME280;9907;42.676;26.348;2023-05-09T02:47:18;99351.94;;;11.67;100.00
19526;BME280;9907;42.676;26.348;2023-05-09T02:49:44;99358.75;;;11.71;100.00
19526;BME280;9907;42.676;26.348;2023-05-09T02:52:09;99358.19;;;11.77;100.00
19526;BME280;9907;42.676;26.348;2023-05-09T02:54:36;99353.97;;;11.75;100.00
19526;BME280;9907;42.676;26.348;2023-05-09T02:57:02;99347.69;;;11.64;100.00
19526;BME280;9907;42.676;26.348;2023-05-09T02:59:28;99346.59;;;11.67;100.00
19526;BME280;9907;42.676;26.348;2023-05-09T03:01:53;99344.59;;;11.69;100.00
19526;BME280;9907;42.676;26.348;2023-05-09T03:04:19;99352.22;;;11.64;100.00
19526;BME280;9907;42.676;26.348;2023-05-09T03:06:45;99351.09;;;11.66;100.00
19526;BME280;9907;42.676;26.348;2023-05-09T03:09:10;99348.69;;;11.63;100.00
19526;BME280;9907;42.676;26.348;2023-05-09T03:11:36;99369.34;;;11.52;100.00
19526;BME280;9907;42.676;26.348;2023-05-09T03:14:02;99372.63;;;11.35;100.00
19526;BME280;9907;42.676;26.348;2023-05-09T03:16:28;99375.75;;;11.30;100.00
19526;BME280;9907;42.676;26.348;2023-05-09T03:18:53;99388.38;;;11.28;100.00
19526;BME280;9907;42.676;26.348;2023-05-09T03:21:19;99384.34;;;11.13;100.00
19526;BME280;9907;42.676;26.348;2023-05-09T03:23:44;99384.09;;;11.16;100.00
19526;BME280;9907;42.676;26.348;2023-05-09T03:26:10;99380.75;;;11.23;100.00
19526;BME280;9907;42.676;26.348;2023-05-09T03:28:37;99384.47;;;11.32;100.00
19526;BME280;9907;42.676;26.348;2023-05-09T03:31:02;99388.25;;;11.30;100.00
19526;BME280;9907;42.676;26.348;2023-05-09T03:33:28;99389.22;;;11.29;100.00
19526;BME280;9907;42.676;26.348;2023-05-09T03:35:54;99394.47;;;11.30;100.00
19526;BME280;9907;42.676;26.348;2023-05-09T03:38:20;99395.22;;;11.42;100.00
19526;BME280;9907;42.676;26.348;2023-05-09T03:40:48;99401.06;;;11.26;100.00
19526;BME280;9907;42.676;26.348;2023-05-09T03:43:14;99399.31;;;11.15;100.00
19526;BME280;9907;42.676;26.348;2023-05-09T03:45:39;99401.47;;;11.31;100.00
19526;BME280;9907;42.676;26.348;2023-05-09T03:48:05;99402.47;;;11.30;100.00
19526;BME280;9907;42.676;26.348;2023-05-09T03:50:34;99408.53;;;11.32;100.00
19526;BME280;9907;42.676;26.348;2023-05-09T03:52:59;99415.13;;;11.28;100.00
19526;BME280;9907;42.676;26.348;2023-05-09T03:55:25;99419.41;;;11.40;100.00
19526;BME280;9907;42.676;26.348;2023-05-09T03:57:50;99417.97;;;11.36;100.00
19526;BME280;9907;42.676;26.348;2023-05-09T04:00:16;99422.09;;;11.40;100.00
19526;BME280;9907;42.676;26.348;2023-05-09T04:02:42;99423.34;;;11.36;100.00
19526;BME280;9907;42.676;26.348;2023-05-09T04:05:07;99420.47;;;11.28;100.00
19526;BME280;9907;42.676;26.348;2023-05-09T04:07:33;99415.38;;;11.25;100.00
19526;BME280;9907;42.676;26.348;2023-05-09T04:09:58;99424.94;;;11.18;100.00
19526;BME280;9907;42.676;26.348;2023-05-09T04:12:24;99427.78;;;11.26;100.00
19526;BME280;9907;42.676;26.348;2023-05-09T04:14:50;99434.09;;;11.25;100.00
19526;BME280;9907;42.676;26.348;2023-05-09T04:17:16;99426.09;;;11.25;100.00
19526;BME280;9907;42.676;26.348;2023-05-09T04:19:42;99439.25;;;11.17;100.00
19526;BME280;9907;42.676;26.348;2023-05-09T04:22:07;99435.31;;;11.11;100.00
19526;BME280;9907;42.676;26.348;2023-05-09T04:24:33;99434.66;;;11.19;100.00
19526;BME280;9907;42.676;26.348;2023-05-09T04:26:58;99437.72;;;11.14;100.00
19526;BME280;9907;42.676;26.348;2023-05-09T04:29:25;99433.72;;;11.09;100.00
19526;BME280;9907;42.676;26.348;2023-05-09T04:31:50;99432.22;;;11.16;100.00
19526;BME280;9907;42.676;26.348;2023-05-09T04:34:16;99432.69;;;11.21;100.00
19526;BME280;9907;42.676;26.348;2023-05-09T04:36:41;99437.44;;;11.17;100.00
19526;BME280;9907;42.676;26.348;2023-05-09T04:39:07;99442.13;;;11.25;100.00
19526;BME280;9907;42.676;26.348;2023-05-09T04:41:32;99438.41;;;11.16;100.00
19526;BME280;9907;42.676;26.348;2023-05-09T04:43:58;99436.84;;;11.14;100.00
19526;BME280;9907;42.676;26.348;2023-05-09T04:46:24;99436.09;;;11.23;100.00
19526;BME280;9907;42.676;26.348;2023-05-09T04:48:49;99437.69;;;11.35;100.00
19526;BME280;9907;42.676;26.348;2023-05-09T04:51:15;99439.09;;;11.39;100.00
19526;BME280;9907;42.676;26.348;2023-05-09T04:53:40;99433.81;;;11.49;100.00
19526;BME280;9907;42.676;26.348;2023-05-09T04:56:06;99440.28;;;11.46;100.00
19526;BME280;9907;42.676;26.348;2023-05-09T04:58:31;99448.44;;;11.45;100.00
19526;BME280;9907;42.676;26.348;2023-05-09T05:00:58;99444.66;;;11.47;100.00
19526;BME280;9907;42.676;26.348;2023-05-09T05:03:24;99444.53;;;11.49;100.00
19526;BME280;9907;42.676;26.348;2023-05-09T05:05:49;99441.56;;;11.52;100.00
19526;BME280;9907;42.676;26.348;2023-05-09T05:08:15;99442.28;;;11.54;100.00
19526;BME280;9907;42.676;26.348;2023-05-09T05:10:40;99440.06;;;11.59;100.00
19526;BME280;9907;42.676;26.348;2023-05-09T05:13:06;99440.63;;;11.62;99.39
19526;BME280;9907;42.676;26.348;2023-05-09T05:15:31;99446.09;;;11.61;98.58
19526;BME280;9907;42.676;26.348;2023-05-09T05:17:56;99437.00;;;11.63;98.43
19526;BME280;9907;42.676;26.348;2023-05-09T05:20:22;99438.16;;;11.70;97.95
19526;BME280;9907;42.676;26.348;2023-05-09T05:22:47;99441.34;;;11.64;98.30
19526;BME280;9907;42.676;26.348;2023-05-09T05:25:13;99446.00;;;11.62;97.45
19526;BME280;9907;42.676;26.348;2023-05-09T05:27:39;99437.00;;;11.63;96.61
19526;BME280;9907;42.676;26.348;2023-05-09T05:30:05;99438.16;;;11.70;95.51
19526;BME280;9907;42.676;26.348;2023-05-09T05:32:31;99445.19;;;11.71;95.19
19526;BME280;9907;42.676;26.348;2023-05-09T05:34:57;99443.94;;;11.76;93.48
19526;BME280;9907;42.676;26.348;2023-05-09T05:37:22;99444.41;;;11.81;93.40
19526;BME280;9907;42.676;26.348;2023-05-09T05:39:48;99450.34;;;11.84;93.56
19526;BME280;9907;42.676;26.348;2023-05-09T05:42:15;99450.34;;;11.84;93.65
19526;BME280;9907;42.676;26.348;2023-05-09T05:44:41;99453.31;;;11.91;92.89
19526;BME280;9907;42.676;26.348;2023-05-09T05:47:06;99447.56;;;11.95;91.05
19526;BME280;9907;42.676;26.348;2023-05-09T05:49:32;99455.69;;;11.84;94.86
19526;BME280;9907;42.676;26.348;2023-05-09T05:51:57;99454.13;;;11.82;96.31
19526;BME280;9907;42.676;26.348;2023-05-09T05:54:23;99460.50;;;11.90;96.64
19526;BME280;9907;42.676;26.348;2023-05-09T05:56:48;99458.63;;;11.81;94.36
19526;BME280;9907;42.676;26.348;2023-05-09T05:59:13;99455.97;;;11.81;95.93
19526;BME280;9907;42.676;26.348;2023-05-09T06:01:39;99462.16;;;11.82;97.08
19526;BME280;9907;42.676;26.348;2023-05-09T06:04:04;99461.88;;;11.85;97.46
19526;BME280;9907;42.676;26.348;2023-05-09T06:06:30;99464.69;;;11.83;95.73
19526;BME280;9907;42.676;26.348;2023-05-09T06:08:56;99468.41;;;11.92;97.78
19526;BME280;9907;42.676;26.348;2023-05-09T06:11:22;99462.44;;;11.79;98.27
19526;BME280;9907;42.676;26.348;2023-05-09T06:13:47;99468.31;;;11.73;99.21
19526;BME280;9907;42.676;26.348;2023-05-09T06:16:13;99474.25;;;11.76;98.12
19526;BME280;9907;42.676;26.348;2023-05-09T06:18:38;99465.50;;;11.74;97.98
19526;BME280;9907;42.676;26.348;2023-05-09T06:21:05;99463.31;;;11.89;96.83
19526;BME280;9907;42.676;26.348;2023-05-09T06:23:31;99461.22;;;11.92;96.38
19526;BME280;9907;42.676;26.348;2023-05-09T06:25:57;99465.25;;;11.87;97.16
19526;BME280;9907;42.676;26.348;2023-05-09T06:28:22;99464.00;;;11.91;97.26
19526;BME280;9907;42.676;26.348;2023-05-09T06:30:48;99471.06;;;11.92;97.10
19526;BME280;9907;42.676;26.348;2023-05-09T06:33:13;99473.63;;;11.93;95.98
19526;BME280;9907;42.676;26.348;2023-05-09T06:35:38;99477.66;;;11.78;98.35
19526;BME280;9907;42.676;26.348;2023-05-09T06:38:04;99481.19;;;11.79;99.28
19526;BME280;9907;42.676;26.348;2023-05-09T06:40:29;99494.13;;;11.83;98.60
19526;BME280;9907;42.676;26.348;2023-05-09T06:42:55;99481.75;;;11.82;98.87
19526;BME280;9907;42.676;26.348;2023-05-09T06:45:21;99486.66;;;11.77;98.54
19526;BME280;9907;42.676;26.348;2023-05-09T06:47:46;99478.41;;;11.90;98.34
19526;BME280;9907;42.676;26.348;2023-05-09T06:50:11;99483.25;;;11.75;99.18
19526;BME280;9907;42.676;26.348;2023-05-09T06:52:37;99477.50;;;11.80;98.63
19526;BME280;9907;42.676;26.348;2023-05-09T06:55:03;99480.91;;;11.82;97.86
19526;BME280;9907;42.676;26.348;2023-05-09T06:57:28;99477.38;;;11.81;97.66
19526;BME280;9907;42.676;26.348;2023-05-09T06:59:54;99475.00;;;11.88;97.35
19526;BME280;9907;42.676;26.348;2023-05-09T07:02:19;99482.28;;;11.76;98.14
19526;BME280;9907;42.676;26.348;2023-05-09T07:04:45;99478.41;;;11.69;100.00
19526;BME280;9907;42.676;26.348;2023-05-09T07:07:10;99478.94;;;11.63;99.09
19526;BME280;9907;42.676;26.348;2023-05-09T07:09:36;99484.53;;;11.71;98.67
19526;BME280;9907;42.676;26.348;2023-05-09T07:12:02;99479.19;;;11.81;97.47
19526;BME280;9907;42.676;26.348;2023-05-09T07:14:28;99489.97;;;11.69;99.07
19526;BME280;9907;42.676;26.348;2023-05-09T07:16:53;99484.81;;;11.78;97.30
19526;BME280;9907;42.676;26.348;2023-05-09T07:19:19;99486.66;;;11.77;97.47
19526;BME280;9907;42.676;26.348;2023-05-09T07:21:44;99486.66;;;11.77;97.69
19526;BME280;9907;42.676;26.348;2023-05-09T07:24:10;99492.75;;;11.68;99.73
19526;BME280;9907;42.676;26.348;2023-05-09T07:26:35;99490.75;;;11.60;100.00
19526;BME280;9907;42.676;26.348;2023-05-09T07:29:01;99499.19;;;11.56;100.00
19526;BME280;9907;42.676;26.348;2023-05-09T07:31:26;99500.28;;;11.53;100.00
19526;BME280;9907;42.676;26.348;2023-05-09T07:33:52;99498.38;;;11.65;100.00
19526;BME280;9907;42.676;26.348;2023-05-09T07:36:17;99501.88;;;11.56;100.00
19526;BME280;9907;42.676;26.348;2023-05-09T07:38:43;99500.75;;;11.58;100.00
19526;BME280;9907;42.676;26.348;2023-05-09T07:41:08;99492.72;;;11.58;100.00
19526;BME280;9907;42.676;26.348;2023-05-09T07:43:34;99506.28;;;11.66;99.19
19526;BME280;9907;42.676;26.348;2023-05-09T07:45:59;99498.38;;;11.65;97.11
19526;BME280;9907;42.676;26.348;2023-05-09T07:48:24;99496.44;;;11.67;97.08
19526;BME280;9907;42.676;26.348;2023-05-09T07:50:50;99499.63;;;11.61;98.37
19526;BME280;9907;42.676;26.348;2023-05-09T07:53:16;99504.94;;;11.72;98.72
19526;BME280;9907;42.676;26.348;2023-05-09T07:55:41;99498.47;;;11.75;96.22
19526;BME280;9907;42.676;26.348;2023-05-09T07:58:09;99503.28;;;11.81;95.01
19526;BME280;9907;42.676;26.348;2023-05-09T08:00:34;99503.56;;;11.78;93.46
19526;BME280;9907;42.676;26.348;2023-05-09T08:03:00;99501.78;;;11.88;94.10
19526;BME280;9907;42.676;26.348;2023-05-09T08:05:25;99498.50;;;11.84;93.57
19526;BME280;9907;42.676;26.348;2023-05-09T08:07:51;99499.38;;;11.85;93.90
19526;BME280;9907;42.676;26.348;2023-05-09T08:10:16;99511.09;;;11.93;94.02
19526;BME280;9907;42.676;26.348;2023-05-09T08:12:42;99506.06;;;12.00;93.49
19526;BME280;9907;42.676;26.348;2023-05-09T08:15:07;99504.22;;;12.00;92.14
19526;BME280;9907;42.676;26.348;2023-05-09T08:17:33;99502.31;;;12.12;92.46
19526;BME280;9907;42.676;26.348;2023-05-09T08:20:00;99501.28;;;12.13;91.63
19526;BME280;9907;42.676;26.348;2023-05-09T08:22:26;99492.16;;;12.15;90.12
19526;BME280;9907;42.676;26.348;2023-05-09T08:24:51;99486.25;;;12.22;89.67
19526;BME280;9907;42.676;26.348;2023-05-09T08:27:17;99484.03;;;12.27;89.79
19526;BME280;9907;42.676;26.348;2023-05-09T08:29:42;99487.28;;;12.30;89.18
19526;BME280;9907;42.676;26.348;2023-05-09T08:32:08;99481.47;;;12.25;86.42
19526;BME280;9907;42.676;26.348;2023-05-09T08:34:34;99487.97;;;12.32;86.98
19526;BME280;9907;42.676;26.348;2023-05-09T08:37:00;99487.97;;;12.42;87.32
19526;BME280;9907;42.676;26.348;2023-05-09T08:39:26;99493.09;;;12.45;87.84
19526;BME280;9907;42.676;26.348;2023-05-09T08:41:58;99488.41;;;12.37;82.83
19526;BME280;9907;42.676;26.348;2023-05-09T08:44:24;99501.81;;;12.37;84.21
19526;BME280;9907;42.676;26.348;2023-05-09T08:46:57;99495.06;;;12.52;82.48
19526;BME280;9907;42.676;26.348;2023-05-09T08:49:23;99486.75;;;12.55;80.49
19526;BME280;9907;42.676;26.348;2023-05-09T08:51:48;99495.06;;;12.62;82.22
19526;BME280;9907;42.676;26.348;2023-05-09T08:54:15;99497.34;;;12.66;82.00
19526;BME280;9907;42.676;26.348;2023-05-09T08:56:41;99495.91;;;12.62;81.13
19526;BME280;9907;42.676;26.348;2023-05-09T08:59:07;99494.09;;;12.63;83.01
19526;BME280;9907;42.676;26.348;2023-05-09T09:01:33;99500.88;;;12.67;81.23
19526;BME280;9907;42.676;26.348;2023-05-09T09:04:05;99497.22;;;12.78;81.63
19526;BME280;9907;42.676;26.348;2023-05-09T09:06:32;99487.75;;;12.83;82.13
19526;BME280;9907;42.676;26.348;2023-05-09T09:08:59;99481.38;;;12.94;82.50
19526;BME280;9907;42.676;26.348;2023-05-09T09:11:26;99490.00;;;13.07;80.63
19526;BME280;9907;42.676;26.348;2023-05-09T09:13:53;99482.50;;;13.01;79.66
19526;BME280;9907;42.676;26.348;2023-05-09T09:16:24;99482.66;;;13.09;79.96
19526;BME280;9907;42.676;26.348;2023-05-09T09:18:51;99477.31;;;13.28;78.01
19526;BME280;9907;42.676;26.348;2023-05-09T09:21:19;99475.44;;;13.38;77.99
19526;BME280;9907;42.676;26.348;2023-05-09T09:23:46;99486.47;;;13.45;78.13
19526;BME280;9907;42.676;26.348;2023-05-09T09:26:12;99484.19;;;13.40;77.30
19526;BME280;9907;42.676;26.348;2023-05-09T09:28:38;99495.22;;;13.37;76.64
19526;BME280;9907;42.676;26.348;2023-05-09T09:33:49;99491.66;;;13.56;77.39
19526;BME280;9907;42.676;26.348;2023-05-09T09:36:15;99491.25;;;13.51;75.73
19526;BME280;9907;42.676;26.348;2023-05-09T09:38:41;99488.81;;;13.57;75.52
19526;BME280;9907;42.676;26.348;2023-05-09T09:41:11;99491.50;;;13.57;74.24
19526;BME280;9907;42.676;26.348;2023-05-09T09:43:37;99486.94;;;13.68;75.02
19526;BME280;9907;42.676;26.348;2023-05-09T09:46:03;99498.66;;;13.76;74.06
19526;BME280;9907;42.676;26.348;2023-05-09T09:48:33;99501.88;;;13.80;72.03
19526;BME280;9907;42.676;26.348;2023-05-09T09:51:09;99486.03;;;13.86;71.11
19526;BME280;9907;42.676;26.348;2023-05-09T09:53:39;99479.25;;;13.92;71.76
19526;BME280;9907;42.676;26.348;2023-05-09T09:56:05;99485.16;;;13.95;72.36
19526;BME280;9907;42.676;26.348;2023-05-09T09:58:31;99480.13;;;14.10;73.12
19526;BME280;9907;42.676;26.348;2023-05-09T10:01:06;99478.06;;;14.04;72.27
19526;BME280;9907;42.676;26.348;2023-05-09T10:03:35;99481.88;;;14.29;72.90
19526;BME280;9907;42.676;26.348;2023-05-09T10:06:01;99479.72;;;14.32;74.22
19526;BME280;9907;42.676;26.348;2023-05-09T10:08:27;99484.63;;;14.46;72.65
19526;BME280;9907;42.676;26.348;2023-05-09T10:10:52;99481.63;;;14.49;73.10
19526;BME280;9907;42.676;26.348;2023-05-09T10:13:18;99478.03;;;14.58;70.63
19526;BME280;9907;42.676;26.348;2023-05-09T10:15:45;99474.91;;;14.81;71.26
19526;BME280;9907;42.676;26.348;2023-05-09T10:18:16;99465.66;;;15.01;70.11
19526;BME280;9907;42.676;26.348;2023-05-09T10:20:44;99470.97;;;14.93;69.64
19526;BME280;9907;42.676;26.348;2023-05-09T10:23:11;99462.84;;;14.85;66.49
19526;BME280;9907;42.676;26.348;2023-05-09T10:25:47;99470.22;;;14.65;66.07
19526;BME280;9907;42.676;26.348;2023-05-09T10:28:16;99470.66;;;14.78;66.63
19526;BME280;9907;42.676;26.348;2023-05-09T10:31:07;99462.97;;;15.01;68.09
19526;BME280;9907;42.676;26.348;2023-05-09T10:33:47;99463.28;;;14.98;68.17
19526;BME280;9907;42.676;26.348;2023-05-09T10:36:16;99464.16;;;14.81;68.45
19526;BME280;9907;42.676;26.348;2023-05-09T10:38:42;99463.91;;;14.92;66.96
19526;BME280;9907;42.676;26.348;2023-05-09T10:41:09;99465.28;;;15.14;66.51
19526;BME280;9907;42.676;26.348;2023-05-09T10:43:35;99467.75;;;15.07;66.12
19526;BME280;9907;42.676;26.348;2023-05-09T10:46:04;99456.50;;;15.11;66.93
19526;BME280;9907;42.676;26.348;2023-05-09T10:48:33;99457.63;;;15.27;68.01
19526;BME280;9907;42.676;26.348;2023-05-09T10:51:01;99455.47;;;15.30;65.51
19526;BME280;9907;42.676;26.348;2023-05-09T10:53:40;99459.78;;;15.23;64.76
19526;BME280;9907;42.676;26.348;2023-05-09T10:56:07;99463.50;;;15.22;64.85
19526;BME280;9907;42.676;26.348;2023-05-09T10:58:33;99461.81;;;15.21;64.53
19526;BME280;9907;42.676;26.348;2023-05-09T11:01:03;99483.09;;;14.97;64.53
19526;BME280;9907;42.676;26.348;2023-05-09T11:04:08;99469.22;;;14.84;65.40
19526;BME280;9907;42.676;26.348;2023-05-09T11:09:29;99472.03;;;14.82;65.81
19526;BME280;9907;42.676;26.348;2023-05-09T11:14:42;99465.03;;;14.89;66.26
19526;BME280;9907;42.676;26.348;2023-05-09T11:17:11;99470.50;;;14.97;66.05
19526;BME280;9907;42.676;26.348;2023-05-09T11:22:25;99471.28;;;14.90;68.43
19526;BME280;9907;42.676;26.348;2023-05-09T11:25:00;99480.94;;;15.00;68.76
19526;BME280;9907;42.676;26.348;2023-05-09T11:27:27;99482.34;;;14.87;68.80
19526;BME280;9907;42.676;26.348;2023-05-09T11:29:55;99473.44;;;14.69;69.16
19526;BME280;9907;42.676;26.348;2023-05-09T11:32:26;99474.97;;;14.53;67.75
19526;BME280;9907;42.676;26.348;2023-05-09T11:35:04;99472.50;;;14.60;68.03
19526;BME280;9907;42.676;26.348;2023-05-09T11:37:30;99476.22;;;14.59;67.25
19526;BME280;9907;42.676;26.348;2023-05-09T11:39:58;99468.50;;;14.64;66.37
19526;BME280;9907;42.676;26.348;2023-05-09T11:42:26;99462.06;;;14.75;66.07
19526;BME280;9907;42.676;26.348;2023-05-09T11:44:52;99460.06;;;14.94;65.28
19526;BME280;9907;42.676;26.348;2023-05-09T11:47:18;99456.59;;;15.02;63.40
19526;BME280;9907;42.676;26.348;2023-05-09T11:49:44;99459.38;;;15.10;62.92
19526;BME280;9907;42.676;26.348;2023-05-09T11:52:10;99457.34;;;15.12;62.58
19526;BME280;9907;42.676;26.348;2023-05-09T11:54:37;99450.50;;;15.18;61.98
19526;BME280;9907;42.676;26.348;2023-05-09T11:57:03;99453.41;;;15.24;62.52
19526;BME280;9907;42.676;26.348;2023-05-09T11:59:30;99453.56;;;15.23;61.51
19526;BME280;9907;42.676;26.348;2023-05-09T12:01:56;99448.16;;;15.23;62.10
19526;BME280;9907;42.676;26.348;2023-05-09T12:04:21;99441.47;;;15.27;62.00
19526;BME280;9907;42.676;26.348;2023-05-09T12:06:47;99429.59;;;15.37;62.04
19526;BME280;9907;42.676;26.348;2023-05-09T12:09:15;99441.00;;;15.49;61.49
19526;BME280;9907;42.676;26.348;2023-05-09T12:11:50;99430.38;;;15.47;62.22
19526;BME280;9907;42.676;26.348;2023-05-09T12:14:30;99418.84;;;15.37;62.46
19526;BME280;9907;42.676;26.348;2023-05-09T12:16:56;99428.69;;;15.03;64.06
19526;BME280;9907;42.676;26.348;2023-05-09T12:19:25;99438.84;;;15.09;63.62
19526;BME280;9907;42.676;26.348;2023-05-09T12:21:58;99434.66;;;14.89;64.84
19526;BME280;9907;42.676;26.348;2023-05-09T12:24:28;99444.63;;;14.79;65.73
19526;BME280;9907;42.676;26.348;2023-05-09T12:26:55;99431.94;;;14.71;66.53
19526;BME280;9907;42.676;26.348;2023-05-09T12:29:22;99426.28;;;14.74;66.48
19526;BME280;9907;42.676;26.348;2023-05-09T12:31:48;99427.81;;;14.77;66.88
19526;BME280;9907;42.676;26.348;2023-05-09T12:34:14;99423.34;;;14.68;66.34
19526;BME280;9907;42.676;26.348;2023-05-09T12:36:43;99421.72;;;14.75;66.86
19526;BME280;9907;42.676;26.348;2023-05-09T12:39:15;99425.44;;;14.74;66.49
19526;BME280;9907;42.676;26.348;2023-05-09T12:41:46;99438.41;;;14.60;66.64
19526;BME280;9907;42.676;26.348;2023-05-09T12:44:21;99425.03;;;14.51;66.09
19526;BME280;9907;42.676;26.348;2023-05-09T12:49:22;99434.84;;;14.60;65.41
19526;BME280;9907;42.676;26.348;2023-05-09T12:51:48;99429.75;;;14.67;66.32
19526;BME280;9907;42.676;26.348;2023-05-09T12:54:22;99419.97;;;14.83;66.85
19526;BME280;9907;42.676;26.348;2023-05-09T12:56:48;99419.81;;;14.85;65.97
19526;BME280;9907;42.676;26.348;2023-05-09T12:59:20;99420.06;;;14.74;65.15
19526;BME280;9907;42.676;26.348;2023-05-09T13:01:50;99432.25;;;14.68;65.97
19526;BME280;9907;42.676;26.348;2023-05-09T13:04:18;99440.47;;;14.49;68.73
19526;BME280;9907;42.676;26.348;2023-05-09T13:06:48;99436.84;;;14.13;72.14
19526;BME280;9907;42.676;26.348;2023-05-09T13:09:15;99438.34;;;13.98;76.51
19526;BME280;9907;42.676;26.348;2023-05-09T13:11:40;99424.03;;;14.07;75.27
19526;BME280;9907;42.676;26.348;2023-05-09T13:14:06;99405.34;;;13.88;75.57
19526;BME280;9907;42.676;26.348;2023-05-09T13:16:33;99402.44;;;13.99;74.64